x

West Santa Barbara 38 Nm West Of Santa Barbara, Ca (46054) Wave Buoy

7:50 - Sat 25th Oct 2014 All times are PDT. -7 hours from GMT.

  • Sig Wave height 7.5ft
  • Swell Direction
  • Peak Period 12s
  • Average Period 7s
  • Wind
    22mph, 25mph gusts
  • Sea Temp 64°f
  • Luft Temp 64°f
  • Sea Pressure 1016.5mb
  • West Santa Barbara  38 Nm West Of Santa Barbara, Ca
  • West Santa Barbara  38 Nm West Of Santa Barbara, Ca

More Historic Weather Station data

Upgrade to MSW Pro to gain access to the past 30 days of data for over 8000 Wavebouys and Weather Stations around the globe.

Join Pro

Comparision Forecast

View Surf forecast
   
Sa 10/25 7:50 7.5ft 12s 7s 22 25 mph 1016.5mb 64f 64f
6:50 8ft 11s 8s 20 25 mph 1016mb 64f 65f
5:50 7ft 14s 8s 20 25 mph 1015.9mb 65f 65f
4:50 7ft 11s 9s 18 22 mph 1016.2mb 65f 65f
3:50 7ft 11s 10s 9 13 mph 1016.8mb 65f 65f
2:50 6ft 13s 9s 11 13 mph 1017.3mb 65f 65f
1:50 6ft 14s 10s 13 16 mph 1017.6mb 65f 64f
12:50 5ft 12s 9s 13 16 mph 1018mb 65f 64f
11:50 5ft 12s 10s 9 11 mph 1018mb 65f 64f
10:50 5ft 12s 9s 11 13 mph 1017.9mb 64f 64f
9:50 5ft 12s 9s 9 11 mph 1017.8mb 64f 64f
8:50 4.5ft 12s 9s 9 11 mph 1017.2mb 64f 64f
7:50 5ft 12s 9s 7 9 mph 1016.4mb 64f 63f
6:50 5.5ft 11s 9s 7 9 mph 1015.8mb 64f 63f
5:50 5.5ft 12s 9s 11 13 mph 1015.7mb 64f 63f
4:50 6ft 13s 9s 9 11 mph 1015.4mb 64f 63f
3:50 6.5ft 11s 9s 9 13 mph 1015.5mb 64f 63f
2:50 7ft 12s 9s 11
mph
1015.7mb 64f 63f
1:50 7ft 11s 9s 11 13 mph 1015.7mb 64f 63f
12:50 7ft 12s 9s 11 13 mph 1015.5mb 64f 63f
Fr 10/24 11:50 7ft 13s 9s 11 13 mph 1015.3mb 64f 63f
10:50 6ft 12s 7s 13 18 mph 1015.1mb 64f 63f
9:50 6.5ft 11s 8s 18 20 mph 1014.8mb 64f 63f
8:50 6ft 12s 8s 16 20 mph 1014.1mb 64f 63f
7:50 7ft 12s 9s 13 16 mph 1013.8mb 65f 63f
6:50 6.5ft 12s 9s 13 16 mph 1013.4mb 65f 64f
5:50 7ft 12s 9s 11 16 mph 1013mb 65f 64f
4:50 8ft 12s 9s 11 13 mph 1012.9mb 65f 64f
3:50 7ft 12s 9s 11 13 mph 1013.1mb 65f 64f
2:50 8ft 12s 9s 9 11 mph 1013.2mb 66f 63f
1:50 9ft 12s 9s 7 9 mph 1013.5mb 65f 63f
12:50 9ft 13s 9s 7 9 mph 1014.2mb 65f 63f
11:50 7.5ft 13s 9s 4 7 mph 1014.7mb 65f 63f
10:50 9ft 13s 9s 7 9 mph 1014.7mb 65f 62f
9:50 8.5ft 13s 9s 11 13 mph 1014.7mb 65f 62f
8:50 9ft 13s 9s 11 13 mph 1014.5mb 65f 61f
7:50 9ft 12s 9s 13 16 mph 1014mb 64f 61f
6:50 8ft 13s 8s 16 18 mph 1013.6mb 64f 61f
5:50 8.5ft 12s 8s 16 18 mph 1013.5mb 64f 62f
4:50 8ft 13s 8s 18 20 mph 1013.3mb 64f 61f
3:50 8.5ft 13s 8s 18 20 mph 1013.2mb 64f 61f
2:50 8ft 13s 8s 16 20 mph 1013.5mb 64f 62f
1:50 8ft 13s 8s 18 20 mph 1013.5mb 64f 62f
12:50 8ft 13s 8s 16 20 mph 1013.6mb 64f 62f
Do 10/23 11:50 8ft 14s 8s 18 22 mph 1013.4mb 64f 62f
10:50 8.5ft 13s 8s 18 22 mph 1013.2mb 64f 63f
9:50 9ft 13s 8s 18 22 mph 1012.7mb 63f 64f
8:50 9.5ft 14s 8s 20 22 mph 1012.2mb 64f 65f
7:50 9ft 12s 8s 20 25 mph 1012mb 64f 65f
6:50 10ft 13s 8s 22 27 mph 1011.7mb 64f 65f
5:50 9ft 11s 8s 22 29 mph 1011.8mb 64f 65f
4:50 9.5ft 14s 8s 20 25 mph 1012.3mb 64f 65f
3:50 9ft 13s 8s 18 25 mph 1012.7mb 64f 65f
2:50 10ft 13s 8s 20 25 mph 1012.9mb 64f 65f
1:50 10ft 12s 8s 18 22 mph 1013.8mb 64f 64f
12:50 10.5ft 12s 8s 16 20 mph 1014.6mb 64f 64f
11:50 11ft 14s 9s 18 22 mph 1015.1mb 64f 64f
10:50 10ft 13s 9s 18 22 mph 1015.2mb 64f 64f
9:50 9.5ft 13s 8s 20 25 mph 1015.1mb 64f 64f
8:50 9ft 13s 8s 20 25 mph 1014.8mb 65f 64f
7:50 9ft 12s 8s 18 22 mph 1013.9mb 65f 65f
6:50 8.5ft 13s 8s 20 22 mph 1013.2mb 65f 65f
5:50 8ft 12s 8s 16 20 mph 1013mb 65f 64f
4:50 8.5ft 13s 8s 16 18 mph 1012.8mb 64f 65f
3:50 8ft 12s 8s 11 13 mph 1012.8mb 64f 65f
2:50 8.5ft 13s 7s 16 18 mph 1013.1mb 64f 65f
1:50 8.5ft 13s 8s 20 22 mph 1013.1mb 64f 65f
12:50 9ft 12s 8s 20 22 mph 1013mb 64f 65f
Mi 10/22 11:50 9.5ft 13s 8s 22 27 mph 1012.9mb 65f 65f
10:50 9ft 13s 8s 20 25 mph 1013mb 65f 65f
9:50 9ft 13s 7s 22 27 mph 1012.7mb 65f 65f
8:50 9ft 13s 7s 25 29 mph 1012.7mb 65f 65f
7:50 9ft 13s 7s 22 27 mph 1012.5mb 65f 65f
6:50 8ft 13s 7s 25 29 mph 1012.1mb 65f 65f
5:50 8ft 13s 7s 22 29 mph 1011.8mb 65f 65f
4:50 8ft 13s 7s 22 27 mph 1011.9mb 66f 66f
3:50 9ft 13s 7s 22 27 mph 1012mb 66f 66f
2:50 9ft 13s 7s 22 29 mph 1012.3mb 65f 66f
1:50 8.5ft 14s 7s 22 27 mph 1013.1mb 66f 66f
12:50 9.5ft 13s 8s 18 22 mph 1013.6mb 66f 66f
11:50 9ft 13s 8s 13 16 mph 1013.8mb 66f 66f
10:50 10ft 14s 9s 13 18 mph 1013.8mb 66f 65f
9:50 10.5ft 14s 9s 16 18 mph 1013.7mb 65f 65f
8:50 11ft 13s 9s 16 18 mph 1013.4mb 65f 65f
7:50 11ft 11s 9s 18 22 mph 1012.4mb 65f 65f
6:50 10ft 14s 8s 18 25 mph 1011.6mb 65f 65f
5:50 11.5ft 14s 8s 20 27 mph 1011mb 65f 65f
4:50 11ft 14s 8s 22 29 mph 1010.6mb 65f 65f